HSC weather

Shaoguan Guitou Airport
Shaoguan, Guangdong Province, China

Public forecast

Using degrees Celsius for public forecast. Weather courtesy of forecast.io.

METAR (pilot weather report)

Report is more than 6 hours old.

Closest report is Ganzhou Airport, 90.4 nm (167.5 km) NE. Retrieved 2018/07/11 13:00 UTC (11 months ago):

ZSGZ 111300Z VRB01MPS 9999 -SHRA FEW033CB OVC053 25/23 Q1002 NOSIG

TAF (pilot weather forecast)

Forecast is more than 12 hours old.

Closest forecast is Guangzhou Baiyun International Airport, 95.5 nm (176.8 km) S. Retrieved 2019/05/26 00:00 UTC (1 day ago):

TAF ZGGG 262101Z 2700/2724 16003MPS 8000 BKN030 TX30/2707Z TN25/2722Z TEMPO 2700/2706 3500 TSRA SCT011 SCT030CB BKN033 TEMPO 2706/2712 3500 TSRA SCT011 SCT030CB BKN033